sensor_id;sensor_type;location;lat;lon;timestamp;P1;durP1;ratioP1;P2;durP2;ratioP2
55545;SDS011;44768;50.298;127.520;2022-11-20T00:08:31;8.20;;;4.90;;
55545;SDS011;44768;50.298;127.520;2022-11-20T00:13:32;6.77;;;4.43;;
55545;SDS011;44768;50.298;127.520;2022-11-20T00:18:34;8.40;;;4.45;;
55545;SDS011;44768;50.298;127.520;2022-11-20T00:23:35;6.67;;;4.30;;
55545;SDS011;44768;50.298;127.520;2022-11-20T00:28:36;9.97;;;4.07;;
55545;SDS011;44768;50.298;127.520;2022-11-20T00:33:38;8.15;;;4.18;;
55545;SDS011;44768;50.298;127.520;2022-11-20T00:38:40;5.32;;;3.88;;
55545;SDS011;44768;50.298;127.520;2022-11-20T00:43:42;7.55;;;4.43;;
55545;SDS011;44768;50.298;127.520;2022-11-20T00:48:43;6.60;;;4.30;;
55545;SDS011;44768;50.298;127.520;2022-11-20T00:53:45;5.45;;;3.80;;
55545;SDS011;44768;50.298;127.520;2022-11-20T00:58:48;8.35;;;3.75;;
55545;SDS011;44768;50.298;127.520;2022-11-20T01:03:50;7.38;;;4.40;;
55545;SDS011;44768;50.298;127.520;2022-11-20T01:08:55;6.78;;;3.90;;
55545;SDS011;44768;50.298;127.520;2022-11-20T01:13:57;9.80;;;4.93;;
55545;SDS011;44768;50.298;127.520;2022-11-20T01:24:00;5.82;;;3.95;;
55545;SDS011;44768;50.298;127.520;2022-11-20T01:29:05;6.43;;;4.05;;
55545;SDS011;44768;50.298;127.520;2022-11-20T01:34:08;5.55;;;4.03;;
55545;SDS011;44768;50.298;127.520;2022-11-20T01:39:12;4.95;;;3.90;;
55545;SDS011;44768;50.298;127.520;2022-11-20T01:44:15;9.50;;;4.45;;
55545;SDS011;44768;50.298;127.520;2022-11-20T01:49:18;7.28;;;5.22;;
55545;SDS011;44768;50.298;127.520;2022-11-20T02:00:03;12.00;;;4.60;;
55545;SDS011;44768;50.298;127.520;2022-11-20T02:05:10;6.25;;;4.55;;
55545;SDS011;44768;50.298;127.520;2022-11-20T02:10:14;8.57;;;5.07;;
55545;SDS011;44768;50.298;127.520;2022-11-20T02:15:15;6.30;;;4.90;;
55545;SDS011;44768;50.298;127.520;2022-11-20T02:20:16;8.83;;;5.17;;
55545;SDS011;44768;50.298;127.520;2022-11-20T02:25:17;6.63;;;5.00;;
55545;SDS011;44768;50.298;127.520;2022-11-20T02:40:22;6.27;;;5.33;;
55545;SDS011;44768;50.298;127.520;2022-11-20T02:45:23;6.72;;;4.93;;
55545;SDS011;44768;50.298;127.520;2022-11-20T02:50:25;7.18;;;5.25;;
55545;SDS011;44768;50.298;127.520;2022-11-20T02:55:26;7.27;;;4.97;;
55545;SDS011;44768;50.298;127.520;2022-11-20T03:00:27;7.80;;;5.05;;
55545;SDS011;44768;50.298;127.520;2022-11-20T03:05:29;13.43;;;5.33;;
55545;SDS011;44768;50.298;127.520;2022-11-20T03:10:30;6.22;;;4.82;;
55545;SDS011;44768;50.298;127.520;2022-11-20T03:15:31;6.87;;;5.60;;
55545;SDS011;44768;50.298;127.520;2022-11-20T03:20:33;10.27;;;5.40;;
55545;SDS011;44768;50.298;127.520;2022-11-20T03:25:34;11.60;;;5.45;;
55545;SDS011;44768;50.298;127.520;2022-11-20T03:30:36;7.13;;;5.18;;
55545;SDS011;44768;50.298;127.520;2022-11-20T03:35:37;9.33;;;5.73;;
55545;SDS011;44768;50.298;127.520;2022-11-20T03:40:39;11.82;;;6.60;;
55545;SDS011;44768;50.298;127.520;2022-11-20T03:45:41;10.85;;;6.57;;
55545;SDS011;44768;50.298;127.520;2022-11-20T03:50:42;10.30;;;6.87;;
55545;SDS011;44768;50.298;127.520;2022-11-20T03:55:43;8.00;;;6.63;;
55545;SDS011;44768;50.298;127.520;2022-11-20T04:00:47;8.57;;;6.65;;
55545;SDS011;44768;50.298;127.520;2022-11-20T04:05:48;9.60;;;6.70;;
55545;SDS011;44768;50.298;127.520;2022-11-20T04:10:49;10.48;;;6.95;;
55545;SDS011;44768;50.298;127.520;2022-11-20T04:15:51;13.33;;;8.10;;
55545;SDS011;44768;50.298;127.520;2022-11-20T04:20:52;13.23;;;7.93;;
55545;SDS011;44768;50.298;127.520;2022-11-20T04:25:53;13.37;;;9.00;;
55545;SDS011;44768;50.298;127.520;2022-11-20T04:30:54;16.02;;;9.85;;
55545;SDS011;44768;50.298;127.520;2022-11-20T04:36:03;13.40;;;8.93;;
55545;SDS011;44768;50.298;127.520;2022-11-20T04:41:06;16.42;;;9.02;;
55545;SDS011;44768;50.298;127.520;2022-11-20T04:46:07;13.90;;;8.70;;
55545;SDS011;44768;50.298;127.520;2022-11-20T04:51:08;25.60;;;11.43;;
55545;SDS011;44768;50.298;127.520;2022-11-20T04:56:10;25.03;;;11.23;;
55545;SDS011;44768;50.298;127.520;2022-11-20T05:01:16;23.60;;;10.52;;
55545;SDS011;44768;50.298;127.520;2022-11-20T05:06:19;13.73;;;9.45;;
55545;SDS011;44768;50.298;127.520;2022-11-20T05:11:21;16.73;;;8.98;;
55545;SDS011;44768;50.298;127.520;2022-11-20T05:16:23;17.33;;;10.43;;
55545;SDS011;44768;50.298;127.520;2022-11-20T05:21:24;21.05;;;10.18;;
55545;SDS011;44768;50.298;127.520;2022-11-20T05:26:26;33.97;;;16.97;;
55545;SDS011;44768;50.298;127.520;2022-11-20T05:31:27;20.73;;;10.60;;
55545;SDS011;44768;50.298;127.520;2022-11-20T05:36:28;16.15;;;10.48;;
55545;SDS011;44768;50.298;127.520;2022-11-20T05:41:32;16.20;;;10.73;;
55545;SDS011;44768;50.298;127.520;2022-11-20T05:46:33;17.73;;;11.57;;
55545;SDS011;44768;50.298;127.520;2022-11-20T05:51:34;18.20;;;12.30;;
55545;SDS011;44768;50.298;127.520;2022-11-20T05:56:35;15.73;;;10.60;;
55545;SDS011;44768;50.298;127.520;2022-11-20T06:01:37;15.85;;;11.15;;
55545;SDS011;44768;50.298;127.520;2022-11-20T06:06:38;13.00;;;9.93;;
55545;SDS011;44768;50.298;127.520;2022-11-20T06:11:40;14.48;;;9.70;;
55545;SDS011;44768;50.298;127.520;2022-11-20T06:16:41;15.97;;;9.30;;
55545;SDS011;44768;50.298;127.520;2022-11-20T06:21:42;18.83;;;9.50;;
55545;SDS011;44768;50.298;127.520;2022-11-20T06:26:43;13.07;;;9.30;;
55545;SDS011;44768;50.298;127.520;2022-11-20T06:31:45;14.30;;;8.80;;
55545;SDS011;44768;50.298;127.520;2022-11-20T06:36:46;14.80;;;9.90;;
55545;SDS011;44768;50.298;127.520;2022-11-20T06:41:48;13.97;;;9.57;;
55545;SDS011;44768;50.298;127.520;2022-11-20T06:46:49;12.85;;;9.10;;
55545;SDS011;44768;50.298;127.520;2022-11-20T06:51:50;15.40;;;11.53;;
55545;SDS011;44768;50.298;127.520;2022-11-20T06:56:51;11.20;;;8.53;;
55545;SDS011;44768;50.298;127.520;2022-11-20T07:01:53;14.25;;;8.65;;
55545;SDS011;44768;50.298;127.520;2022-11-20T07:06:54;15.63;;;9.63;;
55545;SDS011;44768;50.298;127.520;2022-11-20T07:11:56;13.05;;;9.02;;
55545;SDS011;44768;50.298;127.520;2022-11-20T07:16:57;14.23;;;9.87;;
55545;SDS011;44768;50.298;127.520;2022-11-20T07:21:58;17.17;;;10.37;;
55545;SDS011;44768;50.298;127.520;2022-11-20T07:26:59;15.70;;;10.70;;
55545;SDS011;44768;50.298;127.520;2022-11-20T07:32:00;15.73;;;10.83;;
55545;SDS011;44768;50.298;127.520;2022-11-20T07:37:05;18.95;;;9.85;;
55545;SDS011;44768;50.298;127.520;2022-11-20T07:42:07;14.57;;;8.93;;
55545;SDS011;44768;50.298;127.520;2022-11-20T07:47:08;13.13;;;9.75;;
55545;SDS011;44768;50.298;127.520;2022-11-20T07:52:09;17.13;;;9.77;;
55545;SDS011;44768;50.298;127.520;2022-11-20T07:57:10;15.93;;;11.00;;
55545;SDS011;44768;50.298;127.520;2022-11-20T08:02:12;24.05;;;11.05;;
55545;SDS011;44768;50.298;127.520;2022-11-20T08:07:13;13.77;;;10.20;;
55545;SDS011;44768;50.298;127.520;2022-11-20T08:17:35;13.07;;;10.13;;
55545;SDS011;44768;50.298;127.520;2022-11-20T08:22:36;15.57;;;10.53;;
55545;SDS011;44768;50.298;127.520;2022-11-20T08:27:37;15.40;;;9.90;;
55545;SDS011;44768;50.298;127.520;2022-11-20T08:32:38;19.03;;;10.87;;
55545;SDS011;44768;50.298;127.520;2022-11-20T08:37:39;13.27;;;9.75;;
55545;SDS011;44768;50.298;127.520;2022-11-20T08:42:46;12.98;;;9.00;;
55545;SDS011;44768;50.298;127.520;2022-11-20T08:47:48;13.23;;;9.52;;
55545;SDS011;44768;50.298;127.520;2022-11-20T08:52:52;15.77;;;9.87;;
55545;SDS011;44768;50.298;127.520;2022-11-20T08:58:18;13.02;;;9.27;;
55545;SDS011;44768;50.298;127.520;2022-11-20T09:03:19;16.47;;;9.73;;
55545;SDS011;44768;50.298;127.520;2022-11-20T09:08:21;12.77;;;9.35;;
55545;SDS011;44768;50.298;127.520;2022-11-20T09:13:27;15.95;;;9.80;;
55545;SDS011;44768;50.298;127.520;2022-11-20T09:18:34;12.18;;;8.75;;
55545;SDS011;44768;50.298;127.520;2022-11-20T09:23:37;12.88;;;8.40;;
55545;SDS011;44768;50.298;127.520;2022-11-20T09:28:39;13.10;;;7.20;;
55545;SDS011;44768;50.298;127.520;2022-11-20T09:33:40;8.90;;;6.75;;
55545;SDS011;44768;50.298;127.520;2022-11-20T09:38:42;7.50;;;6.22;;
55545;SDS011;44768;50.298;127.520;2022-11-20T09:49:31;10.60;;;6.30;;
55545;SDS011;44768;50.298;127.520;2022-11-20T09:54:35;9.43;;;6.47;;
55545;SDS011;44768;50.298;127.520;2022-11-20T09:59:56;7.03;;;5.95;;
55545;SDS011;44768;50.298;127.520;2022-11-20T10:10:02;8.48;;;5.82;;
55545;SDS011;44768;50.298;127.520;2022-11-20T10:30:14;9.82;;;5.82;;
55545;SDS011;44768;50.298;127.520;2022-11-20T10:40:43;10.02;;;5.80;;
55545;SDS011;44768;50.298;127.520;2022-11-20T10:46:05;8.48;;;5.65;;
55545;SDS011;44768;50.298;127.520;2022-11-20T10:56:14;8.73;;;5.95;;
55545;SDS011;44768;50.298;127.520;2022-11-20T11:01:18;9.38;;;5.65;;
55545;SDS011;44768;50.298;127.520;2022-11-20T11:06:27;8.15;;;5.63;;
55545;SDS011;44768;50.298;127.520;2022-11-20T11:11:38;7.75;;;5.90;;
55545;SDS011;44768;50.298;127.520;2022-11-20T11:17:02;7.40;;;5.28;;
55545;SDS011;44768;50.298;127.520;2022-11-20T11:22:02;7.32;;;5.45;;
55545;SDS011;44768;50.298;127.520;2022-11-20T11:27:17;8.70;;;5.75;;
55545;SDS011;44768;50.298;127.520;2022-11-20T11:32:35;9.65;;;5.90;;
55545;SDS011;44768;50.298;127.520;2022-11-20T11:43:05;8.05;;;5.93;;
55545;SDS011;44768;50.298;127.520;2022-11-20T11:48:26;8.50;;;6.22;;
55545;SDS011;44768;50.298;127.520;2022-11-20T11:53:28;7.03;;;5.63;;
55545;SDS011;44768;50.298;127.520;2022-11-20T11:58:34;8.35;;;6.10;;
55545;SDS011;44768;50.298;127.520;2022-11-20T12:03:42;12.77;;;7.90;;
55545;SDS011;44768;50.298;127.520;2022-11-20T12:08:50;9.65;;;6.75;;
55545;SDS011;44768;50.298;127.520;2022-11-20T12:13:54;8.88;;;6.15;;
55545;SDS011;44768;50.298;127.520;2022-11-20T12:18:57;14.32;;;6.53;;
55545;SDS011;44768;50.298;127.520;2022-11-20T12:39:42;7.47;;;5.07;;
55545;SDS011;44768;50.298;127.520;2022-11-20T13:00:42;10.77;;;4.30;;
55545;SDS011;44768;50.298;127.520;2022-11-20T13:11:16;8.55;;;4.50;;
55545;SDS011;44768;50.298;127.520;2022-11-20T13:21:43;6.18;;;4.38;;
55545;SDS011;44768;50.298;127.520;2022-11-20T13:26:47;9.05;;;5.07;;
55545;SDS011;44768;50.298;127.520;2022-11-20T13:31:48;9.75;;;5.97;;
55545;SDS011;44768;50.298;127.520;2022-11-20T13:36:50;12.73;;;6.78;;
55545;SDS011;44768;50.298;127.520;2022-11-20T13:41:55;11.27;;;4.88;;
55545;SDS011;44768;50.298;127.520;2022-11-20T13:46:57;7.32;;;5.15;;
55545;SDS011;44768;50.298;127.520;2022-11-20T13:52:27;8.45;;;4.70;;
55545;SDS011;44768;50.298;127.520;2022-11-20T14:02:28;6.93;;;4.88;;
55545;SDS011;44768;50.298;127.520;2022-11-20T14:07:38;9.55;;;5.30;;
55545;SDS011;44768;50.298;127.520;2022-11-20T14:12:41;9.60;;;5.60;;
55545;SDS011;44768;50.298;127.520;2022-11-20T14:17:42;7.15;;;5.25;;
55545;SDS011;44768;50.298;127.520;2022-11-20T14:22:49;13.63;;;6.43;;
55545;SDS011;44768;50.298;127.520;2022-11-20T14:27:54;12.95;;;7.47;;
55545;SDS011;44768;50.298;127.520;2022-11-20T14:32:57;19.63;;;9.25;;
55545;SDS011;44768;50.298;127.520;2022-11-20T14:38:01;14.70;;;8.20;;
55545;SDS011;44768;50.298;127.520;2022-11-20T14:43:19;11.18;;;6.78;;
55545;SDS011;44768;50.298;127.520;2022-11-20T14:48:23;12.38;;;7.05;;
55545;SDS011;44768;50.298;127.520;2022-11-20T14:53:25;10.55;;;6.07;;
55545;SDS011;44768;50.298;127.520;2022-11-20T14:58:28;8.93;;;4.95;;
55545;SDS011;44768;50.298;127.520;2022-11-20T15:03:34;9.80;;;4.82;;
55545;SDS011;44768;50.298;127.520;2022-11-20T15:08:38;7.90;;;4.50;;
55545;SDS011;44768;50.298;127.520;2022-11-20T15:13:39;11.80;;;5.43;;
55545;SDS011;44768;50.298;127.520;2022-11-20T15:18:41;8.25;;;4.50;;
55545;SDS011;44768;50.298;127.520;2022-11-20T15:23:42;8.45;;;5.13;;
55545;SDS011;44768;50.298;127.520;2022-11-20T15:28:45;7.43;;;4.40;;
55545;SDS011;44768;50.298;127.520;2022-11-20T15:33:50;6.32;;;4.20;;
55545;SDS011;44768;50.298;127.520;2022-11-20T15:38:51;5.50;;;3.90;;
55545;SDS011;44768;50.298;127.520;2022-11-20T15:43:52;6.33;;;4.37;;
55545;SDS011;44768;50.298;127.520;2022-11-20T15:48:54;6.75;;;4.05;;
55545;SDS011;44768;50.298;127.520;2022-11-20T15:58:58;7.65;;;4.00;;
55545;SDS011;44768;50.298;127.520;2022-11-20T16:09:00;7.93;;;4.40;;
55545;SDS011;44768;50.298;127.520;2022-11-20T16:14:01;5.40;;;4.00;;
55545;SDS011;44768;50.298;127.520;2022-11-20T16:19:24;6.82;;;4.05;;
55545;SDS011;44768;50.298;127.520;2022-11-20T16:24:26;5.90;;;4.30;;
55545;SDS011;44768;50.298;127.520;2022-11-20T16:29:28;7.53;;;4.38;;
55545;SDS011;44768;50.298;127.520;2022-11-20T16:34:33;12.00;;;4.72;;
55545;SDS011;44768;50.298;127.520;2022-11-20T16:39:35;5.72;;;4.40;;
55545;SDS011;44768;50.298;127.520;2022-11-20T16:44:36;5.85;;;4.35;;
55545;SDS011;44768;50.298;127.520;2022-11-20T16:49:37;5.20;;;4.00;;
55545;SDS011;44768;50.298;127.520;2022-11-20T16:54:45;8.07;;;4.78;;
55545;SDS011;44768;50.298;127.520;2022-11-20T17:10:39;12.25;;;5.38;;
55545;SDS011;44768;50.298;127.520;2022-11-20T17:15:42;8.70;;;4.47;;
55545;SDS011;44768;50.298;127.520;2022-11-20T17:20:50;9.90;;;4.13;;
55545;SDS011;44768;50.298;127.520;2022-11-20T17:26:07;7.82;;;4.38;;
55545;SDS011;44768;50.298;127.520;2022-11-20T17:31:14;6.78;;;3.90;;
55545;SDS011;44768;50.298;127.520;2022-11-20T17:36:16;7.40;;;4.38;;
55545;SDS011;44768;50.298;127.520;2022-11-20T17:46:18;6.10;;;3.92;;
55545;SDS011;44768;50.298;127.520;2022-11-20T17:51:21;6.70;;;3.70;;
55545;SDS011;44768;50.298;127.520;2022-11-20T17:56:22;6.22;;;4.40;;
55545;SDS011;44768;50.298;127.520;2022-11-20T18:01:42;5.75;;;3.80;;
55545;SDS011;44768;50.298;127.520;2022-11-20T18:06:43;5.18;;;3.72;;
55545;SDS011;44768;50.298;127.520;2022-11-20T18:11:45;6.18;;;3.85;;
55545;SDS011;44768;50.298;127.520;2022-11-20T18:16:47;6.43;;;3.95;;
55545;SDS011;44768;50.298;127.520;2022-11-20T18:21:49;5.95;;;3.63;;
55545;SDS011;44768;50.298;127.520;2022-11-20T18:26:50;6.03;;;3.85;;
55545;SDS011;44768;50.298;127.520;2022-11-20T18:31:52;7.32;;;4.15;;
55545;SDS011;44768;50.298;127.520;2022-11-20T18:36:53;7.13;;;4.68;;
55545;SDS011;44768;50.298;127.520;2022-11-20T18:41:54;7.97;;;5.20;;
55545;SDS011;44768;50.298;127.520;2022-11-20T18:47:16;7.80;;;4.80;;
55545;SDS011;44768;50.298;127.520;2022-11-20T18:52:21;7.35;;;4.47;;
55545;SDS011;44768;50.298;127.520;2022-11-20T18:57:23;9.20;;;5.03;;
55545;SDS011;44768;50.298;127.520;2022-11-20T19:02:25;7.00;;;4.32;;
55545;SDS011;44768;50.298;127.520;2022-11-20T19:07:27;4.97;;;3.63;;
55545;SDS011;44768;50.298;127.520;2022-11-20T19:12:29;8.88;;;4.40;;
55545;SDS011;44768;50.298;127.520;2022-11-20T19:17:31;5.90;;;3.22;;
55545;SDS011;44768;50.298;127.520;2022-11-20T19:22:32;4.20;;;3.42;;
55545;SDS011;44768;50.298;127.520;2022-11-20T19:27:34;6.70;;;4.30;;
55545;SDS011;44768;50.298;127.520;2022-11-20T19:37:36;6.50;;;3.83;;
55545;SDS011;44768;50.298;127.520;2022-11-20T19:48:04;11.25;;;4.57;;
55545;SDS011;44768;50.298;127.520;2022-11-20T19:53:06;5.90;;;3.97;;
55545;SDS011;44768;50.298;127.520;2022-11-20T19:58:07;6.35;;;3.45;;
55545;SDS011;44768;50.298;127.520;2022-11-20T20:03:08;5.25;;;3.90;;
55545;SDS011;44768;50.298;127.520;2022-11-20T20:08:09;5.03;;;3.55;;
55545;SDS011;44768;50.298;127.520;2022-11-20T20:13:11;4.78;;;3.35;;
55545;SDS011;44768;50.298;127.520;2022-11-20T20:18:12;5.97;;;3.95;;
55545;SDS011;44768;50.298;127.520;2022-11-20T20:23:17;6.15;;;4.60;;
55545;SDS011;44768;50.298;127.520;2022-11-20T20:28:20;7.45;;;5.80;;
55545;SDS011;44768;50.298;127.520;2022-11-20T20:38:23;6.78;;;5.22;;
55545;SDS011;44768;50.298;127.520;2022-11-20T20:43:24;7.32;;;4.70;;
55545;SDS011;44768;50.298;127.520;2022-11-20T20:48:25;5.28;;;4.15;;
55545;SDS011;44768;50.298;127.520;2022-11-20T20:53:28;7.25;;;4.47;;
55545;SDS011;44768;50.298;127.520;2022-11-20T20:58:30;7.28;;;3.92;;
55545;SDS011;44768;50.298;127.520;2022-11-20T21:03:31;9.32;;;4.72;;
55545;SDS011;44768;50.298;127.520;2022-11-20T21:08:33;6.87;;;4.23;;
55545;SDS011;44768;50.298;127.520;2022-11-20T21:13:35;7.55;;;4.70;;
55545;SDS011;44768;50.298;127.520;2022-11-20T21:18:36;9.30;;;4.83;;
55545;SDS011;44768;50.298;127.520;2022-11-20T21:23:37;10.30;;;6.35;;
55545;SDS011;44768;50.298;127.520;2022-11-20T21:28:39;7.85;;;5.28;;
55545;SDS011;44768;50.298;127.520;2022-11-20T21:33:42;9.05;;;4.90;;
55545;SDS011;44768;50.298;127.520;2022-11-20T21:38:44;12.30;;;6.27;;
55545;SDS011;44768;50.298;127.520;2022-11-20T21:43:45;19.37;;;9.63;;
55545;SDS011;44768;50.298;127.520;2022-11-20T21:48:46;7.68;;;4.15;;
55545;SDS011;44768;50.298;127.520;2022-11-20T21:53:47;7.28;;;3.92;;
55545;SDS011;44768;50.298;127.520;2022-11-20T21:58:49;6.43;;;3.65;;
55545;SDS011;44768;50.298;127.520;2022-11-20T22:03:53;7.63;;;3.93;;
55545;SDS011;44768;50.298;127.520;2022-11-20T22:08:54;9.07;;;3.70;;
55545;SDS011;44768;50.298;127.520;2022-11-20T22:13:56;8.15;;;4.35;;
55545;SDS011;44768;50.298;127.520;2022-11-20T22:19:16;14.43;;;5.37;;
55545;SDS011;44768;50.298;127.520;2022-11-20T22:24:19;10.60;;;4.40;;
55545;SDS011;44768;50.298;127.520;2022-11-20T22:29:21;7.23;;;4.00;;
55545;SDS011;44768;50.298;127.520;2022-11-20T22:34:22;6.17;;;3.50;;
55545;SDS011;44768;50.298;127.520;2022-11-20T22:39:23;4.25;;;3.15;;
55545;SDS011;44768;50.298;127.520;2022-11-20T22:44:24;6.30;;;3.40;;
55545;SDS011;44768;50.298;127.520;2022-11-20T22:49:26;5.85;;;3.75;;
55545;SDS011;44768;50.298;127.520;2022-11-20T22:54:27;7.67;;;3.30;;
55545;SDS011;44768;50.298;127.520;2022-11-20T22:59:29;6.10;;;3.30;;
55545;SDS011;44768;50.298;127.520;2022-11-20T23:04:30;6.18;;;3.65;;
55545;SDS011;44768;50.298;127.520;2022-11-20T23:09:31;13.48;;;4.40;;
55545;SDS011;44768;50.298;127.520;2022-11-20T23:14:32;4.80;;;2.90;;
55545;SDS011;44768;50.298;127.520;2022-11-20T23:24:34;3.50;;;2.13;;
55545;SDS011;44768;50.298;127.520;2022-11-20T23:29:36;6.00;;;2.45;;
55545;SDS011;44768;50.298;127.520;2022-11-20T23:34:37;4.43;;;2.60;;
55545;SDS011;44768;50.298;127.520;2022-11-20T23:39:38;3.05;;;2.55;;
55545;SDS011;44768;50.298;127.520;2022-11-20T23:44:40;3.63;;;2.20;;
55545;SDS011;44768;50.298;127.520;2022-11-20T23:49:41;5.20;;;2.33;;
55545;SDS011;44768;50.298;127.520;2022-11-20T23:54:42;3.38;;;2.08;;
55545;SDS011;44768;50.298;127.520;2022-11-20T23:59:43;4.80;;;2.75;;
